Time;durP1;ratioP1;P1;durP2;ratioP2;P2;SDS_P1;SDS_P2;PMS_P1;PMS_P2;Temp;Humidity;BMP_temperature;BMP_pressure;BME280_temperature;BME280_humidity;BME280_pressure;Samples;Min_cycle;Max_cycle;Signal;HPM_P1;HPM_P2
2023/07/26 00:02:09;;;;;;;10.90;3.15;;;10.90;95.00;;;;;;5010410;28;20029;-68
2023/07/26 00:04:34;;;;;;;10.00;2.88;;;10.90;95.10;;;;;;5014085;28;20045;-68
2023/07/26 00:07:00;;;;;;;8.52;3.00;;;10.90;95.10;;;;;;5010303;28;20049;-68
2023/07/26 00:09:25;;;;;;;11.65;3.20;;;10.80;95.10;;;;;;5009390;28;20080;-68
2023/07/26 00:11:50;;;;;;;10.77;3.08;;;10.80;95.30;;;;;;5024748;28;20117;-68
2023/07/26 00:14:16;;;;;;;8.18;3.17;;;10.80;95.40;;;;;;5010820;28;20374;-68
2023/07/26 00:16:41;;;;;;;9.73;3.03;;;10.80;95.40;;;;;;5012855;28;20114;-69
2023/07/26 00:19:07;;;;;;;9.77;3.08;;;10.80;95.50;;;;;;5004453;28;20034;-68
2023/07/26 00:21:33;;;;;;;10.75;3.08;;;10.80;95.50;;;;;;5012096;28;20041;-68
2023/07/26 00:23:59;;;;;;;10.43;3.08;;;10.70;95.50;;;;;;5003878;28;20057;-68
2023/07/26 00:26:25;;;;;;;7.25;2.72;;;10.70;95.60;;;;;;5011403;28;20026;-68
2023/07/26 00:28:51;;;;;;;7.93;3.55;;;10.70;95.60;;;;;;5012807;28;20413;-68
2023/07/26 00:31:16;;;;;;;8.65;3.35;;;10.70;95.70;;;;;;5011239;28;20034;-69
2023/07/26 00:33:42;;;;;;;6.60;3.58;;;10.70;95.70;;;;;;5011941;28;20096;-68
2023/07/26 00:36:08;;;;;;;7.03;2.83;;;10.70;95.80;;;;;;5005720;28;20030;-68
2023/07/26 00:38:34;;;;;;;7.20;3.17;;;10.60;95.70;;;;;;5010409;28;20044;-68
2023/07/26 00:40:59;;;;;;;6.20;2.72;;;10.60;95.80;;;;;;5009764;28;20561;-68
2023/07/26 00:43:25;;;;;;;9.75;3.35;;;10.60;95.90;;;;;;5009045;28;20096;-68
2023/07/26 00:45:53;;;;;;;7.47;3.25;;;10.60;95.90;;;;;;5009427;28;20113;-68
2023/07/26 00:48:19;;;;;;;9.27;3.15;;;10.60;95.90;;;;;;5013097;28;20030;-68
2023/07/26 00:50:46;;;;;;;7.40;3.08;;;10.50;95.90;;;;;;5007066;28;20025;-68
2023/07/26 00:53:13;;;;;;;8.75;4.00;;;10.50;96.10;;;;;;5006977;28;20014;-68
2023/07/26 00:55:39;;;;;;;9.52;3.88;;;10.50;96.20;;;;;;5012001;28;20509;-68
2023/07/26 00:58:04;;;;;;;12.85;3.40;;;10.50;96.30;;;;;;5009716;28;20025;-68
2023/07/26 01:00:30;;;;;;;7.80;3.55;;;10.50;96.40;;;;;;5014415;28;20038;-68
2023/07/26 01:02:56;;;;;;;7.20;3.60;;;10.50;96.30;;;;;;5010446;28;20030;-68
2023/07/26 01:05:24;;;;;;;9.30;3.90;;;10.40;96.20;;;;;;5009855;28;20077;-68
2023/07/26 01:08:17;;;;;;;8.57;3.70;;;10.40;96.40;;;;;;5008489;28;20033;-68
2023/07/26 01:10:55;;;;;;;9.38;3.92;;;10.30;96.60;;;;;;5008615;28;20092;-68
2023/07/26 01:13:41;;;;;;;9.43;3.88;;;10.40;96.60;;;;;;5011222;28;20032;-68
2023/07/26 01:16:07;;;;;;;5.50;3.35;;;10.30;96.70;;;;;;5010579;28;20033;-68
2023/07/26 01:18:32;;;;;;;10.60;3.78;;;10.30;96.80;;;;;;5010147;28;20589;-68
2023/07/26 01:20:59;;;;;;;10.98;3.90;;;10.40;96.90;;;;;;5006632;28;20033;-68
2023/07/26 01:23:25;;;;;;;5.72;3.22;;;10.30;96.90;;;;;;5009919;28;20022;-68
2023/07/26 01:25:50;;;;;;;7.68;4.00;;;10.30;96.90;;;;;;5006912;28;20032;-68
2023/07/26 01:28:16;;;;;;;12.75;4.97;;;10.30;96.90;;;;;;5005592;28;20457;-68
2023/07/26 01:30:42;;;;;;;7.43;4.25;;;10.30;96.90;;;;;;5007871;28;20068;-68
2023/07/26 01:33:09;;;;;;;10.43;3.63;;;10.30;97.00;;;;;;5011812;28;20026;-68
2023/07/26 01:35:36;;;;;;;11.75;4.00;;;10.30;97.00;;;;;;5009540;28;20030;-68
2023/07/26 01:38:02;;;;;;;11.65;4.22;;;10.30;97.00;;;;;;5007371;28;20065;-68
2023/07/26 01:40:28;;;;;;;7.00;4.07;;;10.20;96.90;;;;;;5007380;28;20033;-68
2023/07/26 01:42:55;;;;;;;13.15;4.22;;;10.20;96.90;;;;;;5006302;28;20030;-68
2023/07/26 01:45:21;;;;;;;13.13;4.60;;;10.10;97.10;;;;;;5005836;28;20429;-68
2023/07/26 01:47:47;;;;;;;12.70;4.38;;;10.20;97.30;;;;;;5010703;28;20218;-68
2023/07/26 01:50:13;;;;;;;13.23;4.65;;;10.20;97.20;;;;;;5004003;28;20459;-68
2023/07/26 01:52:38;;;;;;;8.60;4.72;;;10.20;97.40;;;;;;5008523;28;20069;-68
2023/07/26 01:55:04;;;;;;;13.48;4.55;;;10.20;97.40;;;;;;5011355;28;20065;-68
2023/07/26 01:57:30;;;;;;;8.80;4.68;;;10.20;97.40;;;;;;5007751;28;20026;-68
2023/07/26 01:59:55;;;;;;;7.88;4.72;;;10.20;97.30;;;;;;5011386;28;20065;-68
2023/07/26 02:02:21;;;;;;;8.85;5.05;;;10.20;97.30;;;;;;5010780;28;20029;-68
2023/07/26 02:04:47;;;;;;;9.57;4.60;;;10.30;97.40;;;;;;5009851;28;20103;-68
2023/07/26 02:07:12;;;;;;;9.40;5.05;;;10.20;97.30;;;;;;5007918;28;20029;-68
2023/07/26 02:09:38;;;;;;;13.07;5.57;;;10.20;97.30;;;;;;5009572;28;20120;-68
2023/07/26 02:12:04;;;;;;;10.18;4.85;;;10.20;97.40;;;;;;5006664;28;20027;-68
2023/07/26 02:14:29;;;;;;;12.38;5.47;;;10.30;97.50;;;;;;5009832;28;20042;-68
2023/07/26 02:16:55;;;;;;;13.38;5.20;;;10.30;97.50;;;;;;5007752;28;20022;-68
2023/07/26 02:19:21;;;;;;;14.85;5.57;;;10.30;97.50;;;;;;5008992;28;20462;-68
2023/07/26 02:21:46;;;;;;;10.27;4.85;;;10.30;97.50;;;;;;5013580;28;20029;-68
2023/07/26 02:24:12;;;;;;;10.43;4.88;;;10.30;97.40;;;;;;5005785;28;20463;-68
2023/07/26 02:26:37;;;;;;;12.35;5.45;;;10.30;97.50;;;;;;5008015;28;20113;-68
2023/07/26 02:29:03;;;;;;;11.93;5.25;;;10.30;97.50;;;;;;5006371;28;20033;-68
2023/07/26 02:31:28;;;;;;;15.25;5.50;;;10.30;97.60;;;;;;5006568;28;20030;-68
2023/07/26 02:33:54;;;;;;;11.73;5.38;;;10.20;97.60;;;;;;5007370;28;20041;-68
2023/07/26 02:36:19;;;;;;;14.68;5.70;;;10.20;97.60;;;;;;5010297;28;20038;-68
2023/07/26 02:38:45;;;;;;;11.23;5.18;;;10.20;97.60;;;;;;5009256;28;20026;-68
2023/07/26 02:41:10;;;;;;;14.45;6.10;;;10.20;97.50;;;;;;5007111;28;20033;-68
2023/07/26 02:43:36;;;;;;;15.63;5.18;;;10.20;97.70;;;;;;5008578;28;20042;-68
2023/07/26 02:46:01;;;;;;;11.35;5.32;;;10.20;97.70;;;;;;5007472;28;20454;-68
2023/07/26 02:48:27;;;;;;;15.70;5.78;;;10.20;97.70;;;;;;5008013;28;20061;-68
2023/07/26 02:50:53;;;;;;;10.65;5.43;;;10.20;97.80;;;;;;5005338;28;20375;-68
2023/07/26 02:53:18;;;;;;;12.55;5.53;;;10.20;97.80;;;;;;5008432;28;20040;-68
2023/07/26 02:55:44;;;;;;;10.68;5.95;;;10.20;97.90;;;;;;5009606;28;20115;-68
2023/07/26 02:58:10;;;;;;;13.80;5.78;;;10.20;97.90;;;;;;5006993;28;20026;-68
2023/07/26 03:00:35;;;;;;;14.10;5.43;;;10.20;97.80;;;;;;5005534;28;20024;-68
2023/07/26 03:03:01;;;;;;;11.50;5.47;;;10.20;97.80;;;;;;4998704;28;20046;-68
2023/07/26 03:05:27;;;;;;;14.20;5.88;;;10.20;97.90;;;;;;5004351;28;20041;-68
2023/07/26 03:07:53;;;;;;;21.33;6.13;;;10.20;97.90;;;;;;5008209;28;20029;-68
2023/07/26 03:10:18;;;;;;;14.70;5.70;;;10.20;98.00;;;;;;5009619;28;20037;-68
2023/07/26 03:12:44;;;;;;;11.20;5.88;;;10.20;98.00;;;;;;5005160;28;20030;-68
2023/07/26 03:15:10;;;;;;;11.45;5.70;;;10.20;97.80;;;;;;5003551;28;20391;-68
2023/07/26 03:17:35;;;;;;;17.10;6.65;;;10.20;97.90;;;;;;5013495;28;20026;-68
2023/07/26 03:20:01;;;;;;;16.08;5.63;;;10.30;98.00;;;;;;5007323;28;20116;-68
2023/07/26 03:22:26;;;;;;;14.13;6.07;;;10.20;97.90;;;;;;5006055;28;20425;-68
2023/07/26 03:24:52;;;;;;;16.10;6.80;;;10.30;97.90;;;;;;5011075;28;20034;-68
2023/07/26 03:27:17;;;;;;;11.35;5.90;;;10.30;98.00;;;;;;5006267;28;20069;-68
2023/07/26 03:29:43;;;;;;;17.48;6.18;;;10.30;98.00;;;;;;5005652;28;20451;-69
2023/07/26 03:32:09;;;;;;;11.90;5.70;;;10.30;98.10;;;;;;5007187;28;20542;-68
2023/07/26 03:34:34;;;;;;;15.45;6.15;;;10.30;98.10;;;;;;5011485;28;20080;-68
2023/07/26 03:37:01;;;;;;;14.45;5.93;;;10.40;98.00;;;;;;5007838;28;20037;-68
2023/07/26 03:39:26;;;;;;;13.40;6.18;;;10.40;98.00;;;;;;5007835;28;20044;-68
2023/07/26 03:41:52;;;;;;;16.83;6.38;;;10.40;97.90;;;;;;5010227;28;20029;-68
2023/07/26 03:44:17;;;;;;;16.88;6.35;;;10.40;97.90;;;;;;5004591;28;20461;-68
2023/07/26 03:46:43;;;;;;;14.35;5.97;;;10.40;97.90;;;;;;5009298;28;20424;-68
2023/07/26 03:49:08;;;;;;;18.25;6.13;;;10.50;97.90;;;;;;5006121;28;20045;-69
2023/07/26 03:51:34;;;;;;;20.25;6.95;;;10.50;97.90;;;;;;5012342;28;20021;-68
2023/07/26 03:53:59;;;;;;;11.70;5.53;;;10.50;97.90;;;;;;5004258;28;20052;-68
2023/07/26 03:56:25;;;;;;;12.02;5.85;;;10.60;97.80;;;;;;5010420;28;20355;-68
2023/07/26 03:58:50;;;;;;;11.50;5.50;;;10.60;97.80;;;;;;5008927;28;20030;-68
2023/07/26 04:01:16;;;;;;;13.68;5.95;;;10.60;97.70;;;;;;5016479;28;20090;-69
2023/07/26 04:03:41;;;;;;;11.95;6.00;;;10.60;97.80;;;;;;5006397;28;20085;-69
2023/07/26 04:06:12;;;;;;;17.23;5.65;;;10.70;97.70;;;;;;5011974;28;20041;-68
2023/07/26 04:08:37;;;;;;;9.20;5.88;;;10.70;97.70;;;;;;5009735;28;20045;-68
2023/07/26 04:11:03;;;;;;;12.48;5.32;;;10.70;97.70;;;;;;5011222;28;20025;-68
2023/07/26 04:13:28;;;;;;;17.48;5.75;;;10.70;97.50;;;;;;5009827;28;20034;-68
2023/07/26 04:15:54;;;;;;;13.82;5.25;;;10.70;97.50;;;;;;5010319;28;20048;-68
2023/07/26 04:18:19;;;;;;;9.82;5.03;;;10.80;97.50;;;;;;5010925;28;20030;-68
2023/07/26 04:20:45;;;;;;;10.90;5.28;;;10.80;97.40;;;;;;5012565;28;20037;-68
2023/07/26 04:23:10;;;;;;;12.85;5.30;;;10.80;97.40;;;;;;5008650;28;20517;-68
2023/07/26 04:25:36;;;;;;;11.05;4.60;;;10.90;97.50;;;;;;5013773;28;20111;-68
2023/07/26 04:28:01;;;;;;;15.30;4.53;;;11.00;97.40;;;;;;5010987;28;20042;-67
2023/07/26 04:30:27;;;;;;;14.23;4.80;;;11.00;97.30;;;;;;5007463;28;20084;-67
2023/07/26 04:32:52;;;;;;;16.88;5.07;;;11.10;97.20;;;;;;5007955;28;20026;-68
2023/07/26 04:35:18;;;;;;;9.25;4.50;;;11.10;97.10;;;;;;5011713;28;20029;-68
2023/07/26 04:37:43;;;;;;;11.90;4.00;;;11.10;97.10;;;;;;5013593;28;20063;-68
2023/07/26 04:40:09;;;;;;;8.95;4.50;;;11.20;97.10;;;;;;5011435;28;20030;-67
2023/07/26 04:42:35;;;;;;;13.23;4.68;;;11.30;97.00;;;;;;5007403;28;20033;-68
2023/07/26 04:45:00;;;;;;;8.20;4.10;;;11.30;96.90;;;;;;5003125;28;20409;-68
2023/07/26 04:47:26;;;;;;;9.45;4.07;;;11.40;96.90;;;;;;5008026;28;20037;-68
2023/07/26 04:49:51;;;;;;;11.75;4.38;;;11.50;96.80;;;;;;5008270;28;20034;-68
2023/07/26 04:52:17;;;;;;;8.77;4.20;;;11.50;96.70;;;;;;5011649;28;20038;-68
2023/07/26 04:54:42;;;;;;;9.35;4.45;;;11.60;96.60;;;;;;5009192;28;20072;-67
2023/07/26 04:57:08;;;;;;;10.40;4.43;;;11.60;96.50;;;;;;5008899;28;20024;-67
2023/07/26 04:59:33;;;;;;;11.32;3.72;;;11.70;96.30;;;;;;5007652;28;20030;-67
2023/07/26 05:01:59;;;;;;;9.48;3.83;;;11.70;96.20;;;;;;5006655;28;20025;-67
2023/07/26 05:04:24;;;;;;;8.45;3.90;;;11.80;96.20;;;;;;5008327;28;20049;-67
2023/07/26 05:06:50;;;;;;;10.25;3.47;;;11.90;95.90;;;;;;5009908;28;20121;-68
2023/07/26 05:09:15;;;;;;;6.25;3.55;;;12.00;96.00;;;;;;5007728;28;20457;-67
2023/07/26 05:11:41;;;;;;;8.52;3.28;;;12.10;95.90;;;;;;5011689;28;20030;-67
2023/07/26 05:14:06;;;;;;;7.00;3.17;;;12.10;95.50;;;;;;5008970;28;20026;-68
2023/07/26 05:16:32;;;;;;;11.13;3.45;;;12.20;95.50;;;;;;5011476;28;20032;-67
2023/07/26 05:18:58;;;;;;;9.60;3.17;;;12.20;95.40;;;;;;5007359;28;20052;-67
2023/07/26 05:21:25;;;;;;;8.60;3.40;;;12.30;95.60;;;;;;5007047;28;20025;-67
2023/07/26 05:23:50;;;;;;;8.15;3.33;;;12.30;95.40;;;;;;5008149;28;20029;-68
2023/07/26 05:26:16;;;;;;;9.10;3.40;;;12.40;95.30;;;;;;5010520;28;20073;-67
2023/07/26 05:28:41;;;;;;;7.38;2.85;;;12.40;95.00;;;;;;5007096;28;20029;-67
2023/07/26 05:31:07;;;;;;;6.50;3.00;;;12.50;95.10;;;;;;5006704;28;20101;-68
2023/07/26 05:33:32;;;;;;;8.43;3.30;;;12.50;94.90;;;;;;5009471;28;20451;-68
2023/07/26 05:35:58;;;;;;;8.98;3.10;;;12.60;94.90;;;;;;5005463;28;20038;-68
2023/07/26 05:38:23;;;;;;;9.85;3.03;;;12.60;94.60;;;;;;5003827;28;20022;-67
2023/07/26 05:40:49;;;;;;;8.50;2.92;;;12.60;94.70;;;;;;5006961;28;20034;-68
2023/07/26 05:43:17;;;;;;;8.57;3.10;;;12.60;94.50;;;;;;5007255;28;20030;-68
2023/07/26 05:45:43;;;;;;;7.25;2.80;;;12.60;94.50;;;;;;5003116;28;20404;-68
2023/07/26 05:48:08;;;;;;;6.63;2.92;;;12.70;94.50;;;;;;5007485;28;20037;-67
2023/07/26 05:50:33;;;;;;;11.10;3.10;;;12.60;94.10;;;;;;5011310;28;20032;-71
2023/07/26 05:52:59;;;;;;;6.65;2.83;;;12.70;94.30;;;;;;5006077;28;20366;-68
2023/07/26 05:55:24;;;;;;;11.20;3.40;;;12.70;94.00;;;;;;5007868;28;20050;-68
2023/07/26 05:57:50;;;;;;;6.45;3.03;;;12.70;94.00;;;;;;5011084;28;20041;-68
2023/07/26 06:00:17;;;;;;;8.43;2.90;;;12.70;93.80;;;;;;5009494;28;20022;-69
2023/07/26 06:02:43;;;;;;;8.15;2.97;;;12.70;93.80;;;;;;5016823;28;20064;-68
2023/07/26 06:05:08;;;;;;;7.55;2.95;;;12.90;94.00;;;;;;5007192;28;20108;-68
2023/07/26 06:07:34;;;;;;;10.65;2.78;;;13.00;93.50;;;;;;5006742;28;20025;-67
2023/07/26 06:09:59;;;;;;;10.43;3.60;;;13.10;93.20;;;;;;5008457;28;20417;-67
2023/07/26 06:12:25;;;;;;;16.52;3.33;;;13.30;93.00;;;;;;5007387;28;20030;-67
2023/07/26 06:14:51;;;;;;;6.63;2.80;;;13.50;93.20;;;;;;5005066;28;20030;-68
2023/07/26 06:17:16;;;;;;;10.88;2.80;;;13.50;92.50;;;;;;5005218;28;20941;-67
2023/07/26 06:19:42;;;;;;;7.03;2.60;;;13.60;92.60;;;;;;4996056;28;20026;-67
2023/07/26 06:22:07;;;;;;;8.52;2.70;;;13.50;91.60;;;;;;5003120;28;20112;-67
2023/07/26 06:24:33;;;;;;;6.93;2.63;;;13.60;91.60;;;;;;5006092;28;20030;-67
2023/07/26 06:26:58;;;;;;;10.90;2.88;;;13.90;91.80;;;;;;5000587;28;20525;-67
2023/07/26 06:29:24;;;;;;;6.65;2.90;;;14.00;91.50;;;;;;4997253;28;20077;-67
2023/07/26 06:31:49;;;;;;;7.63;2.85;;;14.00;90.60;;;;;;5005253;28;20069;-67
2023/07/26 06:34:15;;;;;;;6.05;2.58;;;14.00;90.40;;;;;;5001241;28;20034;-67
2023/07/26 06:36:40;;;;;;;6.28;2.53;;;14.00;89.90;;;;;;5000438;28;20475;-67
2023/07/26 06:39:06;;;;;;;7.05;2.25;;;14.10;90.10;;;;;;5006629;28;20118;-65
2023/07/26 06:41:32;;;;;;;7.57;2.60;;;14.30;90.20;;;;;;5012222;28;20037;-66
2023/07/26 06:43:57;;;;;;;7.15;2.50;;;14.30;89.70;;;;;;5004402;28;20036;-66
2023/07/26 06:46:23;;;;;;;11.20;2.58;;;14.30;89.00;;;;;;5010789;28;20025;-67
2023/07/26 06:48:48;;;;;;;7.18;2.33;;;14.20;89.20;;;;;;5010720;28;20099;-66
2023/07/26 06:51:14;;;;;;;8.02;2.15;;;14.10;89.00;;;;;;5009637;28;20029;-66
2023/07/26 06:53:39;;;;;;;9.25;2.60;;;14.10;88.90;;;;;;5007674;28;20370;-66
2023/07/26 06:56:05;;;;;;;6.72;2.22;;;14.10;88.70;;;;;;5004739;28;20030;-66
2023/07/26 06:58:31;;;;;;;8.40;2.63;;;14.20;88.70;;;;;;5009591;28;20545;-68
2023/07/26 07:00:57;;;;;;;6.85;2.30;;;14.50;88.00;;;;;;5007866;28;20037;-65
2023/07/26 07:03:23;;;;;;;5.25;2.38;;;14.50;87.60;;;;;;4978970;28;1001381;-69
2023/07/26 07:05:48;;;;;;;9.90;2.65;;;14.60;88.30;;;;;;4998659;28;20051;-66
2023/07/26 07:08:14;;;;;;;7.85;2.30;;;14.40;88.20;;;;;;5006075;28;20451;-66
2023/07/26 07:10:39;;;;;;;4.82;2.15;;;14.40;88.10;;;;;;5001475;28;20030;-66
2023/07/26 07:13:05;;;;;;;5.63;2.28;;;14.50;88.10;;;;;;5002356;28;20065;-66
2023/07/26 07:15:30;;;;;;;5.65;2.47;;;14.80;88.00;;;;;;5001683;28;20096;-67
2023/07/26 07:17:56;;;;;;;9.32;2.42;;;15.00;87.90;;;;;;5002987;28;20030;-66
2023/07/26 07:20:21;;;;;;;7.78;2.45;;;15.00;86.70;;;;;;5000206;28;20054;-67
2023/07/26 07:22:51;;;;;;;6.25;2.85;;;15.10;86.60;;;;;;4997178;28;20034;-66
2023/07/26 07:25:16;;;;;;;5.32;2.10;;;15.20;86.80;;;;;;5000906;28;20042;-67
2023/07/26 07:27:42;;;;;;;9.38;2.45;;;15.30;85.30;;;;;;5002354;28;20381;-66
2023/07/26 07:30:10;;;;;;;6.22;2.40;;;15.30;85.00;;;;;;5003002;28;20454;-67
2023/07/26 07:32:37;;;;;;;8.35;2.10;;;15.50;84.10;;;;;;5002954;28;20018;-66
2023/07/26 07:35:06;;;;;;;7.03;2.20;;;15.50;84.60;;;;;;4997056;28;20158;-67
2023/07/26 07:37:31;;;;;;;6.00;2.08;;;15.50;84.50;;;;;;5000229;28;20135;-68
2023/07/26 07:39:57;;;;;;;5.13;2.20;;;15.70;84.30;;;;;;5000978;28;20029;-66
2023/07/26 07:42:22;;;;;;;4.28;2.30;;;16.00;84.00;;;;;;5003868;28;20454;-66
2023/07/26 07:44:48;;;;;;;5.32;2.22;;;16.10;83.60;;;;;;5001998;28;20038;-67
2023/07/26 07:47:13;;;;;;;7.85;2.15;;;16.50;83.30;;;;;;5006060;28;20157;-68
2023/07/26 07:49:39;;;;;;;6.78;2.13;;;16.80;82.80;;;;;;5005883;28;20348;-66
2023/07/26 07:52:05;;;;;;;6.60;2.35;;;16.80;80.40;;;;;;5000848;28;20042;-66
2023/07/26 07:54:30;;;;;;;5.95;1.73;;;16.80;79.90;;;;;;5003371;28;20037;-67
2023/07/26 07:56:56;;;;;;;9.02;1.95;;;16.70;80.50;;;;;;5002554;28;20352;-67
2023/07/26 07:59:21;;;;;;;9.20;2.17;;;16.80;79.50;;;;;;5004339;28;20038;-67
2023/07/26 08:01:47;;;;;;;4.25;2.10;;;17.20;79.30;;;;;;5016681;28;20033;-67
2023/07/26 08:04:12;;;;;;;6.82;2.05;;;17.30;78.60;;;;;;5009862;28;20046;-66
2023/07/26 08:06:38;;;;;;;4.35;1.98;;;17.40;76.90;;;;;;5013456;28;20121;-66
2023/07/26 08:09:03;;;;;;;7.35;2.28;;;17.40;76.30;;;;;;5007729;28;20041;-66
2023/07/26 08:11:29;;;;;;;5.43;1.90;;;17.50;77.60;;;;;;5011883;28;20034;-66
2023/07/26 08:13:54;;;;;;;4.32;1.75;;;17.00;77.00;;;;;;5011160;28;20108;-69
2023/07/26 08:16:20;;;;;;;3.15;1.42;;;16.80;77.60;;;;;;5007252;28;20044;-66
2023/07/26 08:18:45;;;;;;;3.78;1.75;;;16.90;77.40;;;;;;5006200;28;20026;-67
2023/07/26 08:21:12;;;;;;;4.82;1.80;;;16.90;77.00;;;;;;5007413;28;20109;-67
2023/07/26 08:23:38;;;;;;;1.48;1.08;;;16.90;76.80;;;;;;5019359;28;20022;-66
2023/07/26 08:26:07;;;;;;;3.92;1.60;;;16.80;75.20;;;;;;5009534;28;20041;-66
2023/07/26 08:28:33;;;;;;;2.75;1.38;;;16.70;76.50;;;;;;5011093;28;20034;-66
2023/07/26 08:30:59;;;;;;;6.10;1.85;;;17.00;76.40;;;;;;5007186;28;20060;-66
2023/07/26 08:33:25;;;;;;;6.40;1.63;;;17.00;74.80;;;;;;5005093;28;20406;-67
2023/07/26 08:35:50;;;;;;;4.70;1.73;;;17.60;75.40;;;;;;5003531;28;20095;-65
2023/07/26 08:38:17;;;;;;;4.45;1.45;;;18.00;73.30;;;;;;5007968;28;20030;-66
2023/07/26 08:40:47;;;;;;;3.85;1.35;;;18.10;72.30;;;;;;5013346;28;20120;-66
2023/07/26 08:43:14;;;;;;;4.82;1.77;;;17.80;70.90;;;;;;5013177;28;20402;-66
2023/07/26 08:45:42;;;;;;;5.25;1.50;;;18.00;71.00;;;;;;5007501;28;20458;-66
2023/07/26 08:48:07;;;;;;;4.03;1.30;;;17.50;72.70;;;;;;5014196;28;20028;-65
2023/07/26 08:50:34;;;;;;;3.13;1.20;;;17.70;70.00;;;;;;5012172;28;20029;-68
2023/07/26 08:53:03;;;;;;;2.97;1.30;;;17.50;70.10;;;;;;5011321;28;20671;-66
2023/07/26 08:55:28;;;;;;;3.05;1.30;;;17.30;70.70;;;;;;5023107;28;20034;-66
2023/07/26 08:57:54;;;;;;;2.08;1.15;;;17.80;69.00;;;;;;5016673;28;20026;-66
2023/07/26 09:00:20;;;;;;;5.00;1.50;;;18.50;69.50;;;;;;5001502;28;20045;-66
2023/07/26 09:02:47;;;;;;;4.55;1.50;;;18.90;69.00;;;;;;5013328;28;20034;-66
2023/07/26 09:05:13;;;;;;;2.40;1.15;;;18.70;68.60;;;;;;5005792;28;20510;-66
2023/07/26 09:07:38;;;;;;;2.28;1.05;;;19.00;68.90;;;;;;5011711;28;20115;-66
2023/07/26 09:10:04;;;;;;;2.30;1.05;;;18.20;66.50;;;;;;5003763;28;20033;-67
2023/07/26 09:12:30;;;;;;;3.53;1.05;;;18.20;66.60;;;;;;5000278;28;20026;-66
2023/07/26 09:14:59;;;;;;;2.63;1.20;;;18.00;68.20;;;;;;5012590;28;20352;-66
2023/07/26 09:17:43;;;;;;;2.42;1.00;;;17.80;68.10;;;;;;5011571;28;20113;-66
2023/07/26 09:20:26;;;;;;;2.53;1.10;;;17.50;69.70;;;;;;5007821;28;20096;-67
2023/07/26 09:23:03;;;;;;;2.03;0.93;;;17.40;69.90;;;;;;5012174;28;20025;-65
2023/07/26 09:25:37;;;;;;;3.83;1.20;;;17.70;68.60;;;;;;5008843;28;20071;-66
2023/07/26 09:28:04;;;;;;;5.55;1.33;;;17.50;68.60;;;;;;5013419;28;20033;-66
2023/07/26 09:30:33;;;;;;;4.07;1.10;;;17.50;69.90;;;;;;5008938;28;20041;-66
2023/07/26 09:33:01;;;;;;;3.33;1.27;;;17.80;69.80;;;;;;5011465;28;20504;-65
2023/07/26 09:35:26;;;;;;;4.28;1.45;;;18.20;69.80;;;;;;5006671;28;20092;-66
2023/07/26 09:37:52;;;;;;;3.90;1.00;;;17.90;68.30;;;;;;5001513;28;20034;-66
2023/07/26 09:40:33;;;;;;;5.40;1.42;;;17.50;68.40;;;;;;5013220;28;20442;-66
2023/07/26 09:42:59;;;;;;;2.72;1.30;;;17.30;73.10;;;;;;5008091;28;20432;-66
2023/07/26 09:45:24;;;;;;;4.50;1.17;;;17.00;73.40;;;;;;5007778;28;20113;-65
2023/07/26 09:48:01;;;;;;;2.97;1.08;;;17.00;72.70;;;;;;5006099;28;20038;-66
2023/07/26 09:50:29;;;;;;;3.45;1.30;;;16.90;71.60;;;;;;5005153;28;20033;-66
2023/07/26 09:52:56;;;;;;;2.13;1.13;;;17.00;72.80;;;;;;5006575;28;20022;-67
2023/07/26 09:55:28;;;;;;;3.45;1.30;;;16.80;72.00;;;;;;5008090;28;20037;-67
2023/07/26 09:57:55;;;;;;;2.65;1.00;;;16.90;72.60;;;;;;5011476;28;20041;-66
2023/07/26 10:00:26;;;;;;;4.40;1.30;;;17.00;73.20;;;;;;5009902;28;20040;-66
2023/07/26 10:03:03;;;;;;;;;;;17.20;73.40;;;;;;5006226;28;20451;-66
2023/07/26 10:05:36;;;;;;;2.90;1.08;;;17.10;73.50;;;;;;5005400;28;19917;-65
2023/07/26 10:08:01;;;;;;;5.10;1.40;;;17.40;72.50;;;;;;5007691;28;20038;-67
2023/07/26 10:10:27;;;;;;;3.10;1.13;;;18.00;69.10;;;;;;5003075;28;20056;-67
2023/07/26 10:12:57;;;;;;;4.60;1.23;;;17.90;69.50;;;;;;5009631;28;20076;-68
2023/07/26 10:15:24;;;;;;;8.73;1.40;;;17.70;68.60;;;;;;5002202;28;20701;-66
2023/07/26 10:17:52;;;;;;;3.13;1.25;;;17.80;68.70;;;;;;5008103;28;20359;-66
2023/07/26 10:20:17;;;;;;;3.83;1.08;;;17.80;68.90;;;;;;5003899;28;20038;-66
2023/07/26 10:22:44;;;;;;;2.75;1.30;;;17.90;66.90;;;;;;5006978;28;20052;-66
2023/07/26 10:25:11;;;;;;;4.53;1.30;;;18.40;67.50;;;;;;5004639;28;20026;-66
2023/07/26 10:27:38;;;;;;;2.60;1.10;;;19.00;67.20;;;;;;5007073;28;20030;-65
2023/07/26 10:30:04;;;;;;;2.83;1.20;;;19.20;66.20;;;;;;5002249;28;20477;-66
2023/07/26 10:32:30;;;;;;;3.83;1.20;;;19.40;66.10;;;;;;5012596;28;20109;-66
2023/07/26 10:34:57;;;;;;;2.75;0.95;;;19.20;64.90;;;;;;5004524;28;20117;-67
2023/07/26 10:37:29;;;;;;;4.88;1.30;;;19.00;65.30;;;;;;5007859;28;20084;-68
2023/07/26 10:39:55;;;;;;;4.88;1.27;;;19.10;66.00;;;;;;5003613;28;20410;-66
2023/07/26 10:42:25;;;;;;;3.03;1.08;;;19.70;64.60;;;;;;5006005;28;20029;-66
2023/07/26 10:44:53;;;;;;;2.63;1.25;;;19.90;62.50;;;;;;5005112;28;20041;-68
2023/07/26 10:47:19;;;;;;;2.83;0.98;;;20.30;62.10;;;;;;5003764;28;20072;-69
2023/07/26 10:49:48;;;;;;;1.98;1.00;;;20.70;61.30;;;;;;5001031;28;20026;-68
2023/07/26 10:52:14;;;;;;;2.92;1.35;;;20.20;61.00;;;;;;5002541;28;20057;-66
2023/07/26 10:54:44;;;;;;;4.55;1.58;;;19.90;60.20;;;;;;4999710;28;22771;-67
2023/07/26 10:57:19;;;;;;;3.28;1.40;;;19.50;61.70;;;;;;5002764;28;20523;-67
2023/07/26 10:59:54;;;;;;;2.10;1.20;;;19.40;63.30;;;;;;5004690;28;20112;-66
2023/07/26 11:02:38;;;;;;;4.53;1.10;;;19.40;61.70;;;;;;4996733;28;20041;-67
2023/07/26 11:05:09;;;;;;;1.05;0.68;;;19.00;59.70;;;;;;5001811;28;20312;-66
2023/07/26 11:07:53;;;;;;;;;;;19.00;60.80;;;;;;5005282;28;20049;-66
2023/07/26 11:10:21;;;;;;;1.42;0.90;;;19.70;60.80;;;;;;5004353;28;20403;-68
2023/07/26 11:13:16;;;;;;;3.17;0.80;;;19.80;60.10;;;;;;5009047;28;20026;-67
2023/07/26 11:15:47;;;;;;;1.58;0.73;;;20.30;57.20;;;;;;5000914;28;20029;-69
2023/07/26 11:18:14;;;;;;;1.85;0.80;;;20.90;57.40;;;;;;5005607;28;20366;-69
2023/07/26 11:20:44;;;;;;;1.77;0.80;;;20.70;59.50;;;;;;5002628;28;20033;-69
2023/07/26 11:23:18;;;;;;;1.38;0.93;;;20.50;58.90;;;;;;5001753;28;20032;-68
2023/07/26 11:25:49;;;;;;;3.10;0.95;;;20.30;57.00;;;;;;5021366;28;20038;-68
2023/07/26 11:28:15;;;;;;;1.90;1.10;;;20.00;55.30;;;;;;5009134;28;20025;-68
2023/07/26 11:30:52;;;;;;;3.40;1.20;;;20.50;54.90;;;;;;5006831;28;20049;-68
2023/07/26 11:33:39;;;;;;;1.88;1.08;;;20.80;54.30;;;;;;5007829;28;20036;-68
2023/07/26 11:36:07;;;;;;;2.63;1.00;;;21.00;54.50;;;;;;5000699;28;20368;-67
2023/07/26 11:38:33;;;;;;;3.70;0.90;;;20.80;56.10;;;;;;4998329;28;20180;-68
2023/07/26 11:40:59;;;;;;;2.00;1.23;;;21.30;55.90;;;;;;4999314;28;20455;-67
2023/07/26 11:43:26;;;;;;;3.53;1.23;;;21.00;56.60;;;;;;5007422;28;20040;-68
2023/07/26 11:45:53;;;;;;;1.38;0.98;;;21.20;57.40;;;;;;5006921;28;20048;-67
2023/07/26 11:48:19;;;;;;;1.48;0.98;;;21.30;58.10;;;;;;5020968;28;20034;-67
2023/07/26 11:50:45;;;;;;;2.38;1.33;;;21.80;57.00;;;;;;5009072;28;20463;-68
2023/07/26 11:53:12;;;;;;;3.47;1.75;;;21.30;57.70;;;;;;5020410;28;20026;-67
2023/07/26 11:55:40;;;;;;;4.38;1.10;;;20.00;60.00;;;;;;5010051;28;20026;-66
2023/07/26 11:58:08;;;;;;;2.78;1.42;;;19.90;61.30;;;;;;5003294;28;20149;-67
2023/07/26 12:00:36;;;;;;;2.50;1.13;;;20.00;61.10;;;;;;5013113;28;20570;-66
2023/07/26 12:03:02;;;;;;;4.30;1.42;;;19.60;62.20;;;;;;5004980;28;20038;-66
2023/07/26 12:05:28;;;;;;;1.58;0.98;;;19.60;63.80;;;;;;5005909;28;20041;-66
2023/07/26 12:07:59;;;;;;;2.42;1.10;;;19.50;63.00;;;;;;4999530;28;20022;-66
2023/07/26 12:10:29;;;;;;;;;;;19.30;63.50;;;;;;5001850;28;20026;-66
2023/07/26 12:12:55;;;;;;;3.33;1.20;;;19.20;63.70;;;;;;5006698;28;20733;-66
2023/07/26 12:15:21;;;;;;;2.40;1.58;;;19.10;64.20;;;;;;5008913;28;20455;-68
2023/07/26 12:18:01;;;;;;;3.15;1.40;;;19.00;63.70;;;;;;5007036;28;20033;-66
2023/07/26 12:20:29;;;;;;;4.00;1.25;;;18.90;64.60;;;;;;5006157;28;20026;-66
2023/07/26 12:23:00;;;;;;;1.85;0.80;;;18.90;63.90;;;;;;5002911;28;20367;-66
2023/07/26 12:25:35;;;;;;;1.58;0.90;;;18.50;63.50;;;;;;4997539;28;20034;-66
2023/07/26 12:28:00;;;;;;;1.27;0.80;;;17.90;65.20;;;;;;5004798;28;20045;-67
2023/07/26 12:30:27;;;;;;;1.95;0.90;;;17.40;69.90;;;;;;5011142;28;20044;-66
2023/07/26 12:33:10;;;;;;;1.15;0.75;;;16.60;74.80;;;;;;5002748;28;20031;-67
2023/07/26 12:35:36;;;;;;;1.20;0.70;;;16.30;74.70;;;;;;4996842;28;20068;-67
2023/07/26 12:38:12;;;;;;;2.17;1.00;;;16.30;74.50;;;;;;5009164;28;20025;-69
2023/07/26 12:40:39;;;;;;;3.28;1.23;;;16.30;75.30;;;;;;5009413;28;20331;-66
2023/07/26 12:43:28;;;;;;;1.88;1.08;;;16.60;79.50;;;;;;5004611;28;20120;-67
2023/07/26 12:45:55;;;;;;;2.55;1.08;;;16.40;75.90;;;;;;5010852;28;20121;-66